Santa Cruz, Texas
Current Conditions -  °F | °C
As of 8:55 AM on Tuesday 21 Oct 2014 (Local Time) from KEBG Reporting Station
Broken Clouds Broken Clouds  
Wind Chill: 74°   Ceiling: 6000
Heat Index: 74°   Visibility: 7mi
Dew Point: 71°   Wind: 8mph
Humidity: 88%   Direction: 10°N
Pressure: 29.98"   Gusts: NA
Location:  26.5735°N, 98.695°W
Report Text: KEBG 211355Z AUTO 01007KT 7SM BKN060 24/22 A2998 RMK AO2 T02360215
Loading
Personal Weather Stations






























Interactive Weather Map
Tropical Storm Tracking
New forecast layout! Learn more

10-Day Weather Forecast

Advertisements
Track Severe Weather on mobile